Time;durP1;ratioP1;P1;durP2;ratioP2;P2;SDS_P1;SDS_P2;PMS_P1;PMS_P2;Temp;Humidity;BMP_temperature;BMP_pressure;BME280_temperature;BME280_humidity;BME280_pressure;Samples;Min_cycle;Max_cycle;Signal;HPM_P1;HPM_P2
2023/01/31 00:02:19;;;;;;;12.80;6.30;;;;;;;2.63;92.43;99161.11;107658;1252;81636;-56
2023/01/31 00:04:57;;;;;;;9.80;6.30;;;;;;;2.62;92.36;99161.91;107536;1258;99658;-56
2023/01/31 00:07:36;;;;;;;9.50;6.20;;;;;;;2.61;92.36;99165.20;107646;1256;87857;-57
2023/01/31 00:10:17;;;;;;;11.80;7.10;;;;;;;2.60;92.31;99159.02;107642;1254;95502;-59
2023/01/31 00:12:59;;;;;;;11.90;6.70;;;;;;;2.58;92.16;99168.78;107631;1254;81191;-59
2023/01/31 00:15:35;;;;;;;9.90;6.50;;;;;;;2.57;92.43;99176.09;107654;1256;81990;-57
2023/01/31 00:18:13;;;;;;;11.80;6.40;;;;;;;2.55;92.18;99178.18;107613;1252;98799;-57
2023/01/31 00:20:49;;;;;;;13.60;6.10;;;;;;;2.55;92.26;99184.63;107600;1254;87394;-59
2023/01/31 00:23:23;;;;;;;11.70;6.70;;;;;;;2.58;92.29;99181.98;107586;1254;95104;-59
2023/01/31 00:26:06;;;;;;;12.40;6.60;;;;;;;2.54;92.49;99182.77;107631;1254;81696;-58
2023/01/31 00:28:46;;;;;;;11.70;6.30;;;;;;;2.56;92.45;99185.95;107574;1253;83550;-58
2023/01/31 00:31:29;;;;;;;10.30;6.40;;;;;;;2.56;92.69;99185.40;107601;1254;96918;-58
2023/01/31 00:34:03;;;;;;;10.10;6.30;;;;;;;2.60;92.56;99191.34;107560;1256;88929;-59
2023/01/31 00:36:35;;;;;;;12.20;5.90;;;;;;;2.62;92.56;99195.54;107632;1253;93860;-55
2023/01/31 00:39:12;;;;;;;13.00;6.50;;;;;;;2.63;92.50;99204.99;107592;1253;79056;-57
2023/01/31 00:41:54;;;;;;;11.80;5.90;;;;;;;2.64;92.43;99202.96;107612;1254;81223;-56
2023/01/31 00:44:31;;;;;;;12.60;6.20;;;;;;;2.68;92.43;99212.09;107661;1254;99846;-58
2023/01/31 00:47:08;;;;;;;12.00;6.00;;;;;;;2.73;92.46;99209.63;107624;1256;88777;-56
2023/01/31 00:49:45;;;;;;;10.60;5.10;;;;;;;2.74;92.45;99215.11;107634;1256;93303;-57
2023/01/31 00:52:21;;;;;;;9.70;5.20;;;;;;;2.76;92.42;99223.35;107626;1254;81814;-56
2023/01/31 00:54:57;;;;;;;12.00;5.60;;;;;;;2.75;92.41;99218.61;107629;1254;79808;-58
2023/01/31 00:57:34;;;;;;;11.20;5.80;;;;;;;2.75;92.54;99223.61;107583;1256;100426;-58
2023/01/31 01:00:10;;;;;;;11.20;5.50;;;;;;;2.78;92.34;99226.95;107603;1254;89250;-56
2023/01/31 01:02:44;;;;;;;13.20;5.30;;;;;;;2.81;92.28;99226.64;107589;1256;93311;-56
2023/01/31 01:05:20;;;;;;;;;;;;;;;2.81;92.33;99234.11;107606;1254;80590;-57
2023/01/31 01:07:54;;;;;;;11.30;4.90;;;;;;;2.83;92.53;99234.95;107587;1252;82985;-56
2023/01/31 01:10:35;;;;;;;9.40;5.30;;;;;;;2.84;92.43;99237.47;107597;1254;99715;-56
2023/01/31 01:13:15;;;;;;;10.00;4.90;;;;;;;2.85;92.31;99238.29;107571;1256;87862;-56
2023/01/31 01:15:54;;;;;;;11.40;4.80;;;;;;;2.85;92.38;99244.91;107500;1254;94219;-58
2023/01/31 01:18:35;;;;;;;10.90;5.50;;;;;;;2.83;92.42;99243.44;107650;1253;79961;-57
2023/01/31 01:21:17;;;;;;;11.00;5.00;;;;;;;2.82;92.29;99243.11;107641;1254;81699;-56
2023/01/31 01:23:57;;;;;;;9.70;4.80;;;;;;;2.79;92.12;99249.44;107620;1253;98990;-56
2023/01/31 01:26:33;;;;;;;11.20;5.50;;;;;;;2.76;92.06;99251.08;107667;1254;88405;-60
2023/01/31 01:29:15;;;;;;;11.80;5.40;;;;;;;2.75;92.24;99249.58;107632;1256;95403;-59
2023/01/31 01:31:56;;;;;;;8.20;5.20;;;;;;;2.74;92.19;99249.34;107716;1253;80092;-56
2023/01/31 01:34:33;;;;;;;9.00;5.10;;;;;;;2.74;92.21;99248.02;107659;1254;83224;-58
2023/01/31 01:37:10;;;;;;;12.30;5.50;;;;;;;2.71;92.23;99259.02;107383;1254;99064;-59
2023/01/31 01:39:49;;;;;;;10.20;5.60;;;;;;;2.70;92.21;99261.88;107657;1254;89592;-59
2023/01/31 01:42:36;;;;;;;14.00;6.30;;;;;;;2.71;92.31;99267.05;107640;1254;95894;-59
2023/01/31 01:45:15;;;;;;;18.70;8.40;;;;;;;2.76;92.33;99268.67;107619;1252;80186;-59
2023/01/31 01:47:52;;;;;;;14.70;8.70;;;;;;;2.76;92.34;99270.55;107660;1254;81575;-59
2023/01/31 01:50:36;;;;;;;15.30;7.20;;;;;;;2.76;92.23;99274.64;107621;1254;97650;-55
2023/01/31 01:53:18;;;;;;;15.00;8.70;;;;;;;2.76;92.31;99280.71;107582;1256;89335;-57
2023/01/31 01:55:56;;;;;;;12.50;6.30;;;;;;;2.78;92.53;99285.64;107577;1253;92955;-61
2023/01/31 01:58:40;;;;;;;12.30;5.70;;;;;;;2.80;92.38;99284.41;107544;1253;79720;-59
2023/01/31 02:01:17;;;;;;;14.60;6.00;;;;;;;2.84;92.42;99291.34;107597;1254;82085;-59
2023/01/31 02:04:00;;;;;;;10.60;5.40;;;;;;;2.85;92.40;99291.68;107563;1254;99278;-60
2023/01/31 02:06:42;;;;;;;11.00;5.20;;;;;;;2.85;92.32;99296.02;107586;1254;86793;-58
2023/01/31 02:09:30;;;;;;;17.50;5.60;;;;;;;2.87;92.27;99299.58;107580;1253;95610;-58
2023/01/31 02:12:09;;;;;;;11.30;5.00;;;;;;;2.88;92.33;99303.39;107644;1252;78461;-58
2023/01/31 02:14:48;;;;;;;10.50;5.00;;;;;;;2.91;92.32;99309.60;107619;1253;82146;-56
2023/01/31 02:17:25;;;;;;;9.50;5.30;;;;;;;2.93;92.33;99316.84;107670;1254;99432;-56
2023/01/31 02:20:19;;;;;;;12.20;5.00;;;;;;;2.93;92.30;99324.02;107694;1256;89210;-58
2023/01/31 02:23:22;;;;;;;13.50;5.70;;;;;;;2.92;92.16;99330.81;107716;1254;95548;-59
2023/01/31 02:26:38;;;;;;;9.50;5.20;;;;;;;2.88;92.19;99337.34;107661;1254;79353;-58
2023/01/31 02:29:51;;;;;;;12.40;4.90;;;;;;;2.86;92.25;99338.67;107612;1254;83846;-59
2023/01/31 02:32:57;;;;;;;17.20;7.60;;;;;;;2.88;92.27;99345.91;107454;1253;99404;-56
2023/01/31 02:35:49;;;;;;;25.40;10.10;;;;;;;2.88;92.33;99342.10;107600;1256;89029;-55
2023/01/31 02:38:42;;;;;;;13.80;6.70;;;;;;;2.91;92.16;99345.48;107570;1253;93361;-57
2023/01/31 02:41:30;;;;;;;13.20;6.10;;;;;;;2.95;92.04;99351.52;107569;1254;79614;-60
2023/01/31 02:47:26;;;;;;;17.10;6.50;;;;;;;2.96;92.38;99352.52;107561;1254;98392;-58
2023/01/31 02:50:11;;;;;;;15.60;6.00;;;;;;;2.97;92.32;99357.48;107569;1256;87521;-56
2023/01/31 02:52:52;;;;;;;14.20;5.00;;;;;;;3.03;92.12;99361.05;107559;1254;95064;-56
2023/01/31 02:58:32;;;;;;;13.10;6.00;;;;;;;3.03;92.17;99376.09;107487;1259;81662;-57
2023/01/31 03:01:12;;;;;;;14.20;5.00;;;;;;;3.05;92.15;99379.59;107573;1252;99957;-56
2023/01/31 03:03:52;;;;;;;12.30;5.30;;;;;;;3.05;92.11;99386.16;107584;1254;89271;-57
2023/01/31 03:07:07;;;;;;;15.00;5.40;;;;;;;3.07;92.10;99392.05;107598;1254;95717;-56
2023/01/31 03:10:02;;;;;;;15.10;4.10;;;;;;;3.05;92.13;99393.71;107572;1254;78067;-54
2023/01/31 03:12:49;;;;;;;;;;;;;;;3.03;92.06;99402.40;107656;1256;82676;-55
2023/01/31 03:18:51;;;;;;;14.40;4.70;;;;;;;2.98;91.96;99418.37;107566;1256;89246;-57
2023/01/31 03:21:32;;;;;;;12.60;5.90;;;;;;;3.00;91.87;99422.24;107620;1253;95966;-53
2023/01/31 03:24:07;;;;;;;16.80;6.00;;;;;;;2.99;92.03;99429.27;107639;1254;81449;-53
2023/01/31 03:26:42;;;;;;;13.20;4.50;;;;;;;3.01;91.93;99428.05;107616;1254;81779;-55
2023/01/31 03:29:21;;;;;;;12.40;4.40;;;;;;;3.04;91.98;99431.45;107580;1256;99910;-53
2023/01/31 03:32:06;;;;;;;12.60;4.60;;;;;;;3.06;91.87;99437.73;107520;1256;90295;-57
2023/01/31 03:34:46;;;;;;;13.60;4.40;;;;;;;3.05;91.92;99442.92;107560;1254;95066;-54
2023/01/31 03:37:29;;;;;;;15.80;4.10;;;;;;;3.08;91.73;99446.20;107595;1254;80915;-54
2023/01/31 03:40:10;;;;;;;13.10;3.10;;;;;;;3.09;91.81;99453.37;107557;1254;81866;-54
2023/01/31 03:42:52;;;;;;;14.60;4.70;;;;;;;3.12;91.80;99456.80;107550;1256;98759;-55
2023/01/31 03:45:37;;;;;;;13.40;4.00;;;;;;;3.15;91.64;99453.63;107603;1254;90400;-56
2023/01/31 03:48:21;;;;;;;13.30;3.50;;;;;;;3.14;91.43;99455.16;107198;1256;93696;-56
2023/01/31 03:51:03;;;;;;;12.80;3.90;;;;;;;3.13;91.44;99456.66;107641;1253;78576;-54
2023/01/31 03:53:46;;;;;;;16.20;3.70;;;;;;;3.07;91.32;99456.09;107602;1256;83362;-54
2023/01/31 03:56:27;;;;;;;15.60;3.20;;;;;;;3.05;91.17;99456.96;107657;1256;97241;-56
2023/01/31 03:59:08;;;;;;;15.10;4.10;;;;;;;3.04;91.13;99460.86;107654;1254;89258;-57
2023/01/31 04:01:47;;;;;;;12.00;3.50;;;;;;;3.00;91.30;99460.02;107641;1254;95317;-57
2023/01/31 04:04:32;;;;;;;11.70;4.60;;;;;;;3.01;91.12;99461.48;107629;1254;81044;-56
2023/01/31 04:07:16;;;;;;;12.90;3.20;;;;;;;3.05;91.22;99466.46;107522;1257;80073;-54
2023/01/31 04:09:55;;;;;;;15.70;4.20;;;;;;;3.06;90.93;99467.23;107431;1257;98684;-57
2023/01/31 04:12:36;;;;;;;16.10;3.30;;;;;;;3.07;90.99;99468.28;107459;1254;87938;-56
2023/01/31 04:15:10;;;;;;;9.40;2.90;;;;;;;3.07;91.08;99465.65;107496;1257;93850;-56
2023/01/31 04:17:45;;;;;;;;;;;;;;;3.09;90.87;99470.27;107502;1254;77324;-56
2023/01/31 04:20:21;;;;;;;11.00;3.10;;;;;;;3.02;90.76;99469.58;107487;1257;82525;-54
2023/01/31 04:23:03;;;;;;;21.90;5.10;;;;;;;2.92;90.76;99479.68;107425;1258;97363;-54
2023/01/31 04:25:42;;;;;;;15.10;4.50;;;;;;;2.91;90.62;99486.91;107343;1256;86296;-54
2023/01/31 04:28:21;;;;;;;15.30;3.80;;;;;;;2.86;90.39;99491.58;107380;1258;95101;-54
2023/01/31 04:31:02;;;;;;;13.90;3.70;;;;;;;2.82;90.58;99487.92;107451;1256;80202;-54
2023/01/31 04:33:44;;;;;;;13.90;2.90;;;;;;;2.75;90.58;99494.36;107443;1259;81964;-55
2023/01/31 04:36:24;;;;;;;20.50;4.90;;;;;;;2.65;90.35;99498.94;107483;1256;98350;-55
2023/01/31 04:39:08;;;;;;;15.20;5.20;;;;;;;2.58;90.12;99505.20;107429;1257;89097;-55
2023/01/31 04:41:45;;;;;;;15.80;3.90;;;;;;;2.54;90.30;99510.98;107485;1254;95745;-54
2023/01/31 04:44:28;;;;;;;14.60;4.30;;;;;;;2.50;90.34;99512.33;107479;1256;79856;-55
2023/01/31 04:47:06;;;;;;;19.60;5.00;;;;;;;2.55;90.38;99515.66;107449;1256;81716;-55
2023/01/31 04:49:48;;;;;;;16.90;4.60;;;;;;;2.60;90.36;99520.08;107548;1254;99791;-58
2023/01/31 04:52:27;;;;;;;23.60;7.60;;;;;;;2.66;90.41;99525.20;107519;1257;89292;-58
2023/01/31 04:55:08;;;;;;;23.10;7.80;;;;;;;2.62;90.36;99528.25;107385;1259;94860;-57
2023/01/31 04:57:48;;;;;;;20.90;4.40;;;;;;;2.55;90.40;99531.29;107509;1255;81694;-57
2023/01/31 05:00:23;;;;;;;16.50;3.80;;;;;;;2.48;90.31;99535.77;107475;1255;81529;-54
2023/01/31 05:03:00;;;;;;;14.40;3.60;;;;;;;2.48;90.14;99542.91;107334;1254;99876;-62
2023/01/31 05:05:37;;;;;;;13.50;3.60;;;;;;;2.46;90.31;99548.57;107463;1258;88146;-55
2023/01/31 05:08:08;;;;;;;14.50;4.50;;;;;;;2.49;90.26;99555.80;107448;1257;93528;-56
2023/01/31 05:10:47;;;;;;;16.50;4.30;;;;;;;2.52;90.31;99559.59;107466;1255;81460;-52
2023/01/31 05:13:28;;;;;;;20.20;5.60;;;;;;;2.58;90.38;99562.42;107315;1257;83178;-53
2023/01/31 05:16:02;;;;;;;13.80;4.90;;;;;;;2.59;90.39;99571.19;107444;1257;99571;-54
2023/01/31 05:18:41;;;;;;;14.40;3.80;;;;;;;2.64;90.33;99578.95;107428;1257;87003;-54
2023/01/31 05:21:15;;;;;;;10.30;3.70;;;;;;;2.66;90.42;99584.50;107434;1254;93915;-55
2023/01/31 05:23:51;;;;;;;12.60;3.30;;;;;;;2.70;90.17;99589.05;107458;1254;79255;-55
2023/01/31 05:26:32;;;;;;;14.20;4.10;;;;;;;2.77;90.28;99594.08;107467;1255;82699;-55
2023/01/31 05:29:12;;;;;;;14.10;3.90;;;;;;;2.76;90.04;99596.77;107356;1254;97833;-56
2023/01/31 05:31:44;;;;;;;19.60;5.60;;;;;;;2.73;89.91;99597.80;107476;1254;89880;-57
2023/01/31 05:34:24;;;;;;;25.90;9.80;;;;;;;2.71;89.99;99603.52;107498;1257;93166;-58
2023/01/31 05:37:03;;;;;;;22.80;8.40;;;;;;;2.69;89.88;99609.06;107452;1256;80493;-56
2023/01/31 05:39:41;;;;;;;26.50;9.80;;;;;;;2.69;89.80;99613.53;107496;1256;81828;-54
2023/01/31 05:42:23;;;;;;;41.10;14.30;;;;;;;2.69;89.89;99614.57;107447;1255;99815;-54
2023/01/31 05:45:01;;;;;;;21.90;8.60;;;;;;;2.73;89.99;99618.63;107486;1257;89240;-54
2023/01/31 05:47:40;;;;;;;18.00;6.30;;;;;;;2.74;89.80;99621.33;107404;1257;94095;-54
2023/01/31 05:50:14;;;;;;;15.80;5.40;;;;;;;2.70;89.60;99624.40;107423;1257;80022;-55
2023/01/31 05:52:51;;;;;;;20.40;6.30;;;;;;;2.65;89.61;99627.17;107448;1258;80962;-55
2023/01/31 05:55:28;;;;;;;16.80;5.30;;;;;;;2.61;89.51;99631.98;107306;1256;98851;-56
2023/01/31 05:58:05;;;;;;;20.10;5.80;;;;;;;2.57;89.38;99644.46;107447;1257;88303;-56
2023/01/31 06:00:44;;;;;;;22.90;7.30;;;;;;;2.57;89.38;99647.83;107423;1255;95194;-53
2023/01/31 06:03:16;;;;;;;19.40;6.70;;;;;;;2.59;89.56;99653.92;107420;1257;79520;-53
2023/01/31 06:05:56;;;;;;;24.70;8.80;;;;;;;2.62;89.58;99657.89;107447;1257;81852;-55
2023/01/31 06:08:31;;;;;;;9.50;3.30;;;;;;;2.61;89.39;99664.67;107459;1257;98784;-58
2023/01/31 06:11:15;;;;;;;17.30;5.90;;;;;;;2.59;89.39;99668.92;107480;1257;87619;-57
2023/01/31 06:13:58;;;;;;;13.30;4.00;;;;;;;2.64;89.61;99671.30;107478;1256;94433;-57
2023/01/31 06:16:38;;;;;;;14.80;4.20;;;;;;;2.67;89.40;99674.21;107567;1258;78880;-54
2023/01/31 06:22:08;;;;;;;21.80;5.70;;;;;;;2.73;89.28;99687.48;107473;1257;99552;-55
2023/01/31 06:24:42;;;;;;;16.20;4.30;;;;;;;2.71;89.30;99686.17;107501;1259;88089;-57
2023/01/31 06:27:26;;;;;;;14.50;4.60;;;;;;;2.72;89.25;99687.15;107293;1255;94859;-57
2023/01/31 06:30:06;;;;;;;19.00;5.10;;;;;;;2.71;89.09;99684.64;107458;1259;81819;-54
2023/01/31 06:32:43;;;;;;;15.00;4.90;;;;;;;2.68;88.97;99694.48;107451;1258;81717;-54
2023/01/31 06:35:23;;;;;;;12.40;4.10;;;;;;;2.69;89.01;99699.23;107445;1258;100294;-54
2023/01/31 06:38:00;;;;;;;14.70;5.60;;;;;;;2.71;88.97;99705.41;107419;1258;88858;-54
2023/01/31 06:40:42;;;;;;;13.50;4.00;;;;;;;2.74;89.03;99710.83;107412;1254;94291;-56
2023/01/31 06:43:20;;;;;;;12.30;4.50;;;;;;;2.72;88.93;99712.98;107430;1254;78313;-57
2023/01/31 06:45:55;;;;;;;13.30;6.10;;;;;;;2.70;88.82;99713.90;107359;1256;82916;-57
2023/01/31 06:48:37;;;;;;;13.40;4.00;;;;;;;2.69;88.63;99716.65;107437;1254;99470;-57
2023/01/31 06:51:18;;;;;;;15.90;4.40;;;;;;;2.65;88.52;99723.69;107445;1257;89634;-55
2023/01/31 06:54:00;;;;;;;14.00;4.10;;;;;;;2.61;88.59;99717.13;107392;1259;95324;-55
2023/01/31 06:56:39;;;;;;;16.60;6.30;;;;;;;2.59;88.37;99725.33;107410;1257;79950;-54
2023/01/31 06:59:15;;;;;;;12.50;3.40;;;;;;;2.65;88.56;99723.59;107480;1259;81296;-54
2023/01/31 07:01:56;;;;;;;13.50;4.20;;;;;;;2.70;88.48;99724.56;107468;1254;98548;-54
2023/01/31 07:04:32;;;;;;;13.00;4.70;;;;;;;2.72;88.66;99726.65;107496;1257;88771;-56
2023/01/31 07:07:12;;;;;;;16.40;4.20;;;;;;;2.73;88.35;99728.19;107453;1259;96427;-57
2023/01/31 07:09:52;;;;;;;13.80;5.10;;;;;;;2.68;88.24;99729.95;107490;1255;79444;-56
2023/01/31 07:12:35;;;;;;;14.40;3.70;;;;;;;2.69;88.41;99740.33;107464;1255;81793;-56
2023/01/31 07:15:10;;;;;;;14.10;4.60;;;;;;;2.73;88.41;99746.10;107518;1257;97743;-56
2023/01/31 07:17:44;;;;;;;16.50;5.10;;;;;;;2.73;88.17;99753.86;107457;1259;87247;-56
2023/01/31 07:20:18;;;;;;;20.90;6.30;;;;;;;2.72;88.19;99759.52;107439;1259;93821;-57
2023/01/31 07:22:58;;;;;;;16.40;6.20;;;;;;;2.76;88.12;99763.75;107422;1256;79302;-56
2023/01/31 07:25:30;;;;;;;22.20;7.60;;;;;;;2.82;88.16;99772.40;107415;1254;82804;-55
2023/01/31 07:28:05;;;;;;;21.40;9.00;;;;;;;2.92;88.07;99776.67;107418;1259;100076;-54
2023/01/31 07:30:42;;;;;;;15.70;4.60;;;;;;;2.97;88.06;99781.67;107437;1258;86801;-57
2023/01/31 07:33:20;;;;;;;12.60;4.00;;;;;;;3.04;88.32;99788.63;107426;1254;94465;-57
2023/01/31 07:36:02;;;;;;;13.70;4.70;;;;;;;3.07;87.89;99791.15;107445;1255;78333;-57
2023/01/31 07:38:36;;;;;;;16.80;6.60;;;;;;;3.11;88.12;99795.77;107429;1259;83208;-56
2023/01/31 07:41:13;;;;;;;22.60;8.20;;;;;;;3.12;87.70;99799.38;107442;1255;99439;-57
2023/01/31 07:43:48;;;;;;;25.30;8.80;;;;;;;3.10;87.56;99798.81;107458;1258;89086;-57
2023/01/31 07:46:24;;;;;;;19.50;7.70;;;;;;;3.15;87.34;99805.84;107486;1257;94793;-55
2023/01/31 07:49:08;;;;;;;15.10;6.70;;;;;;;3.17;87.44;99811.52;107428;1254;81578;-56
2023/01/31 07:51:49;;;;;;;13.00;5.50;;;;;;;3.24;87.40;99810.34;107443;1256;82426;-54
2023/01/31 07:54:24;;;;;;;14.50;4.60;;;;;;;3.34;87.46;99815.98;107497;1254;97543;-53
2023/01/31 07:57:01;;;;;;;18.60;7.10;;;;;;;3.43;87.38;99825.81;107526;1254;87911;-55
2023/01/31 07:59:38;;;;;;;18.60;7.10;;;;;;;3.46;86.89;99833.68;107511;1259;95812;-54
2023/01/31 08:05:09;;;;;;;17.10;7.00;;;;;;;3.41;86.62;99837.48;107319;1260;82852;-56
2023/01/31 08:07:41;;;;;;;18.50;5.30;;;;;;;3.42;86.68;99842.34;107422;1254;98737;-56
2023/01/31 08:10:16;;;;;;;11.20;4.10;;;;;;;3.41;86.45;99839.02;107478;1254;86880;-56
2023/01/31 08:12:57;;;;;;;11.30;2.60;;;;;;;3.40;86.39;99839.70;107393;1258;93251;-56
2023/01/31 08:15:36;;;;;;;16.70;5.30;;;;;;;3.40;86.34;99848.78;107419;1255;81594;-57
2023/01/31 08:18:18;;;;;;;19.00;7.30;;;;;;;3.43;86.26;99850.04;107405;1259;82243;-56
2023/01/31 08:20:58;;;;;;;14.50;4.70;;;;;;;3.49;86.19;99857.98;107459;1257;98703;-55
2023/01/31 08:23:38;;;;;;;15.60;4.90;;;;;;;3.54;86.27;99860.28;107430;1254;87676;-56
2023/01/31 08:26:15;;;;;;;16.80;4.60;;;;;;;3.56;86.15;99865.23;107457;1258;92699;-53
2023/01/31 08:28:53;;;;;;;16.30;4.50;;;;;;;3.57;85.94;99867.09;107419;1259;79823;-54
2023/01/31 08:31:28;;;;;;;;;;;;;;;3.57;85.99;99871.35;107502;1259;81860;-56
2023/01/31 08:34:06;;;;;;;9.50;3.10;;;;;;;3.60;85.73;99878.18;107432;1258;98666;-55
2023/01/31 08:36:43;;;;;;;10.00;4.30;;;;;;;3.64;85.45;99879.17;107483;1254;87959;-57
2023/01/31 08:39:17;;;;;;;12.20;4.10;;;;;;;3.64;85.00;99878.10;107439;1254;94196;-59
2023/01/31 08:41:48;;;;;;;12.20;4.50;;;;;;;3.68;85.24;99879.98;107489;1254;79156;-58
2023/01/31 08:44:24;;;;;;;15.30;4.40;;;;;;;3.83;85.05;99877.61;107475;1259;82496;-58
2023/01/31 08:47:05;;;;;;;10.40;3.60;;;;;;;3.98;84.94;99882.05;107315;1260;99731;-57
2023/01/31 08:49:39;;;;;;;12.70;3.40;;;;;;;4.12;84.76;99889.27;107466;1258;87147;-60
2023/01/31 08:52:18;;;;;;;12.20;3.50;;;;;;;4.24;84.73;99883.17;107446;1254;94107;-58
2023/01/31 08:54:57;;;;;;;13.30;3.90;;;;;;;4.42;84.27;99875.38;107425;1260;77839;-59
2023/01/31 08:57:32;;;;;;;11.60;4.20;;;;;;;4.42;83.90;99883.02;107434;1260;82269;-61
2023/01/31 09:00:11;;;;;;;10.20;4.20;;;;;;;4.45;83.70;99884.02;107425;1259;97441;-58
2023/01/31 09:02:52;;;;;;;12.40;3.50;;;;;;;4.35;83.30;99889.86;107312;1260;90166;-57
2023/01/31 09:05:32;;;;;;;10.80;2.60;;;;;;;4.23;83.05;99890.33;107441;1258;93408;-55
2023/01/31 09:08:07;;;;;;;9.30;2.90;;;;;;;4.15;82.92;99890.20;107396;1259;80503;-54
2023/01/31 09:10:44;;;;;;;9.50;3.30;;;;;;;4.12;82.70;99894.08;107436;1254;81747;-55
2023/01/31 09:13:21;;;;;;;11.00;3.80;;;;;;;4.08;82.80;99900.02;107422;1259;98853;-57
2023/01/31 09:16:05;;;;;;;12.60;3.50;;;;;;;4.06;82.72;99903.59;107450;1260;89141;-57
2023/01/31 09:18:45;;;;;;;14.50;3.60;;;;;;;4.03;82.80;99902.14;107452;1258;92436;-59
2023/01/31 09:21:21;;;;;;;18.20;5.50;;;;;;;3.93;82.57;99909.80;107481;1255;80423;-57
2023/01/31 09:24:01;;;;;;;11.60;4.60;;;;;;;3.87;82.49;99908.70;107331;1261;83218;-56
2023/01/31 09:26:40;;;;;;;9.90;3.40;;;;;;;3.86;82.57;99910.34;107315;1257;96616;-53
2023/01/31 09:29:21;;;;;;;12.90;5.70;;;;;;;3.84;82.75;99914.12;107425;1254;89291;-55
2023/01/31 09:31:54;;;;;;;15.50;6.50;;;;;;;3.90;82.44;99916.02;107355;1258;95571;-58
2023/01/31 09:34:27;;;;;;;21.40;7.20;;;;;;;3.92;82.71;99918.67;107437;1254;81531;-53
2023/01/31 09:37:01;;;;;;;12.10;5.50;;;;;;;3.95;82.62;99922.93;107369;1254;80633;-54
2023/01/31 09:39:36;;;;;;;14.40;4.90;;;;;;;4.00;82.44;99922.83;107438;1259;100233;-57
2023/01/31 09:42:21;;;;;;;12.40;5.30;;;;;;;4.01;82.40;99927.16;107421;1254;88558;-56
2023/01/31 09:45:04;;;;;;;12.70;4.80;;;;;;;4.06;82.28;99924.30;107375;1258;94812;-56
2023/01/31 09:47:40;;;;;;;15.50;6.30;;;;;;;4.07;82.33;99930.39;107409;1254;80024;-56
2023/01/31 09:50:21;;;;;;;18.60;8.40;;;;;;;4.11;82.02;99931.47;107362;1254;81058;-57
2023/01/31 09:53:01;;;;;;;13.80;6.10;;;;;;;4.12;82.12;99931.70;107459;1259;99295;-56
2023/01/31 09:55:43;;;;;;;20.00;10.10;;;;;;;4.11;81.99;99936.98;107432;1260;86208;-57
2023/01/31 09:58:26;;;;;;;18.20;8.60;;;;;;;4.12;81.78;99938.40;107393;1255;93670;-58
2023/01/31 10:01:19;;;;;;;19.10;6.70;;;;;;;4.28;81.90;99936.66;107491;1255;80956;-57
2023/01/31 10:04:38;;;;;;;18.20;7.90;;;;;;;4.36;81.62;99937.59;107464;1255;83195;-56
2023/01/31 10:07:24;;;;;;;11.20;5.60;;;;;;;4.37;81.31;99937.27;107445;1259;98819;-55
2023/01/31 10:10:07;;;;;;;15.80;6.00;;;;;;;4.36;81.12;99940.55;107432;1255;88420;-55
2023/01/31 10:12:56;;;;;;;17.30;6.10;;;;;;;4.46;80.79;99934.75;107472;1258;95254;-54
2023/01/31 10:15:44;;;;;;;18.50;6.50;;;;;;;4.52;80.97;99930.47;107468;1254;76590;-58
2023/01/31 10:18:30;;;;;;;12.40;5.60;;;;;;;4.54;80.54;99928.47;107394;1258;83295;-54
2023/01/31 10:21:10;;;;;;;17.50;5.10;;;;;;;4.52;80.18;99921.95;107398;1254;99202;-55
2023/01/31 10:23:50;;;;;;;13.70;4.00;;;;;;;4.49;79.99;99924.75;107429;1260;87664;-55
2023/01/31 10:26:30;;;;;;;7.60;3.10;;;;;;;4.47;79.85;99923.86;107376;1260;95140;-54
2023/01/31 10:29:14;;;;;;;11.10;3.30;;;;;;;4.48;80.17;99926.23;107445;1255;79258;-54
2023/01/31 10:31:58;;;;;;;14.20;3.80;;;;;;;4.49;79.76;99926.01;107454;1254;80672;-57
2023/01/31 10:34:44;;;;;;;13.90;4.60;;;;;;;4.52;79.98;99924.59;107407;1260;97350;-56
2023/01/31 10:37:29;;;;;;;15.80;3.80;;;;;;;4.56;79.91;99926.30;107353;1260;89036;-57
2023/01/31 10:40:13;;;;;;;10.80;2.90;;;;;;;4.56;79.33;99927.38;107434;1254;95305;-55
2023/01/31 10:42:51;;;;;;;10.80;3.40;;;;;;;4.50;78.84;99924.77;107234;1260;81299;-54
2023/01/31 10:45:32;;;;;;;8.70;2.90;;;;;;;4.49;79.19;99925.23;107480;1254;81752;-55
2023/01/31 10:48:18;;;;;;;13.90;3.80;;;;;;;4.53;79.35;99920.78;107494;1254;99870;-54
2023/01/31 10:51:05;;;;;;;12.10;3.90;;;;;;;4.65;79.33;99922.67;107479;1259;88473;-55
2023/01/31 10:53:59;;;;;;;9.10;3.50;;;;;;;4.85;79.25;99919.78;107454;1254;95458;-55
2023/01/31 10:56:36;;;;;;;9.30;3.80;;;;;;;4.86;78.56;99917.23;107445;1254;79268;-55
2023/01/31 10:59:21;;;;;;;12.20;4.80;;;;;;;4.89;78.37;99917.71;107443;1254;80415;-55
2023/01/31 11:02:01;;;;;;;13.50;4.30;;;;;;;5.00;78.16;99914.89;107417;1254;99918;-55
2023/01/31 11:04:40;;;;;;;14.70;4.80;;;;;;;5.08;77.97;99913.37;107424;1254;88615;-54
2023/01/31 11:07:20;;;;;;;13.90;5.20;;;;;;;5.01;76.93;99909.88;107401;1255;94183;-54
2023/01/31 11:09:58;;;;;;;10.60;3.80;;;;;;;4.94;77.11;99911.81;107398;1254;80522;-56
2023/01/31 11:13:03;;;;;;;12.20;4.90;;;;;;;4.89;77.13;99915.81;107417;1254;81582;-57
2023/01/31 11:15:42;;;;;;;17.10;7.30;;;;;;;4.90;77.26;99919.63;107412;1254;99478;-54
2023/01/31 11:18:28;;;;;;;20.10;6.90;;;;;;;4.90;77.61;99917.61;107410;1258;88172;-54
2023/01/31 11:21:01;;;;;;;18.50;6.70;;;;;;;4.93;77.21;99921.95;107429;1254;95570;-56
2023/01/31 11:23:45;;;;;;;14.40;6.50;;;;;;;4.85;77.33;99921.36;107416;1254;79300;-56
2023/01/31 11:26:33;;;;;;;12.50;4.20;;;;;;;4.78;77.11;99922.45;107295;1257;81087;-56
2023/01/31 11:29:21;;;;;;;16.50;4.80;;;;;;;4.69;77.14;99926.48;107450;1254;96543;-57
2023/01/31 11:31:56;;;;;;;17.40;8.10;;;;;;;4.68;77.16;99930.15;107438;1254;88073;-55
2023/01/31 11:34:33;;;;;;;26.50;13.60;;;;;;;4.71;77.14;99934.84;107472;1254;92253;-56
2023/01/31 11:37:20;;;;;;;34.10;18.70;;;;;;;4.64;76.81;99937.33;107426;1254;77957;-57
2023/01/31 11:39:59;;;;;;;19.60;8.80;;;;;;;4.66;76.53;99937.36;107438;1259;82662;-57
2023/01/31 11:42:31;;;;;;;20.10;9.60;;;;;;;4.69;76.27;99938.77;107381;1255;97523;-56
2023/01/31 11:45:16;;;;;;;14.20;6.10;;;;;;;4.77;76.72;99931.52;107396;1254;87955;-58
2023/01/31 11:47:59;;;;;;;13.70;5.20;;;;;;;4.73;76.18;99933.70;107005;1254;533835;-56
2023/01/31 11:50:39;;;;;;;15.80;8.10;;;;;;;4.72;76.33;99930.82;107411;1260;77716;-56
2023/01/31 11:53:27;;;;;;;12.50;6.40;;;;;;;4.70;76.11;99925.90;107402;1254;80557;-56
2023/01/31 11:56:16;;;;;;;10.30;4.40;;;;;;;4.67;75.83;99922.76;107408;1254;100257;-56
2023/01/31 11:58:53;;;;;;;18.60;5.00;;;;;;;4.64;75.56;99914.15;107427;1254;89630;-57
2023/01/31 12:01:28;;;;;;;13.50;4.80;;;;;;;4.67;75.71;99912.82;107398;1254;93362;-55
2023/01/31 12:04:05;;;;;;;12.10;4.30;;;;;;;4.77;75.83;99907.80;107418;1255;77815;-55
2023/01/31 12:06:39;;;;;;;13.40;3.80;;;;;;;4.89;75.92;99901.92;107494;1254;83459;-56
2023/01/31 12:09:42;;;;;;;11.30;4.60;;;;;;;5.00;75.96;99903.29;107420;1258;96782;-55
2023/01/31 12:12:34;;;;;;;14.30;4.40;;;;;;;5.15;75.89;99901.12;107467;1254;89148;-55
2023/01/31 12:15:16;;;;;;;7.70;2.90;;;;;;;5.27;75.93;99900.92;107478;1254;95330;-54
2023/01/31 12:17:50;;;;;;;8.00;2.60;;;;;;;5.34;75.73;99902.20;107472;1259;77558;-55
2023/01/31 12:20:38;;;;;;;8.70;3.00;;;;;;;5.32;75.54;99898.73;107504;1254;80769;-57
2023/01/31 12:23:30;;;;;;;10.50;3.80;;;;;;;5.23;75.11;99896.30;107509;1254;97319;-57
2023/01/31 12:26:19;;;;;;;12.70;4.60;;;;;;;5.14;74.86;99895.39;107449;1254;89470;-54
2023/01/31 12:29:30;;;;;;;10.90;3.90;;;;;;;5.08;75.17;99894.75;107414;1259;95158;-54
2023/01/31 12:32:18;;;;;;;9.70;3.20;;;;;;;5.03;74.72;99895.50;107422;1254;80268;-54
2023/01/31 12:35:32;;;;;;;10.90;4.50;;;;;;;5.05;74.92;99893.14;107445;1254;81003;-57
2023/01/31 12:38:17;;;;;;;10.60;3.70;;;;;;;4.99;74.76;99892.40;107419;1254;98717;-57
2023/01/31 12:41:02;;;;;;;9.60;3.80;;;;;;;4.87;74.04;99890.15;107405;1254;86987;-54
2023/01/31 12:44:05;;;;;;;12.10;6.90;;;;;;;4.75;74.35;99896.06;107399;1258;93636;-54
2023/01/31 12:46:50;;;;;;;16.20;8.00;;;;;;;4.76;74.52;99891.31;107425;1254;78205;-58